createdAt,value
2019-02-03T00:00:21.964Z,929.26
2019-02-03T00:01:21.926Z,929.28
2019-02-03T00:02:21.863Z,929.26
2019-02-03T00:03:21.840Z,929.30
2019-02-03T00:04:21.788Z,929.28
2019-02-03T00:05:21.756Z,929.32
2019-02-03T00:06:21.722Z,929.34
2019-02-03T00:07:21.659Z,929.33
2019-02-03T00:08:21.636Z,929.38
2019-02-03T00:09:21.582Z,929.37
2019-02-03T00:10:21.553Z,929.39
2019-02-03T00:11:21.506Z,929.37
2019-02-03T00:12:21.431Z,929.41
2019-02-03T00:13:21.409Z,929.41
2019-02-03T00:14:21.357Z,929.43
2019-02-03T00:15:21.333Z,929.42
2019-02-03T00:16:21.289Z,929.41
2019-02-03T00:17:21.227Z,929.44
2019-02-03T00:18:21.171Z,929.41
2019-02-03T00:19:21.140Z,929.47
2019-02-03T00:20:21.100Z,929.45
2019-02-03T00:21:21.042Z,929.51
2019-02-03T00:22:20.999Z,929.51
2019-02-03T00:23:20.956Z,929.51
2019-02-03T00:24:20.924Z,929.52
2019-02-03T00:25:20.881Z,929.51
2019-02-03T00:26:20.851Z,929.59
2019-02-03T00:27:20.805Z,929.60
2019-02-03T00:28:20.761Z,929.59
2019-02-03T00:29:20.698Z,929.63
2019-02-03T00:30:20.688Z,929.64
2019-02-03T00:31:20.644Z,929.66
2019-02-03T00:32:20.591Z,929.68
2019-02-03T00:33:20.557Z,929.69
2019-02-03T00:34:20.482Z,929.71
2019-02-03T00:35:20.459Z,929.76
2019-02-03T00:36:20.439Z,929.77
2019-02-03T00:37:20.353Z,929.76
2019-02-03T00:38:24.155Z,929.77
2019-02-03T00:39:20.294Z,929.77
2019-02-03T00:40:20.263Z,929.77
2019-02-03T00:41:20.257Z,929.76
2019-02-03T00:42:20.137Z,929.80
2019-02-03T00:43:20.114Z,929.82
2019-02-03T00:44:20.082Z,929.83
2019-02-03T00:45:20.019Z,929.86
2019-02-03T00:46:19.997Z,929.85
2019-02-03T00:47:19.932Z,929.86
2019-02-03T00:48:19.890Z,929.86
2019-02-03T00:49:19.835Z,929.89
2019-02-03T00:50:19.803Z,929.89
2019-02-03T00:51:19.768Z,929.91
2019-02-03T00:52:19.717Z,929.91
2019-02-03T00:53:19.682Z,929.93
2019-02-03T00:54:19.630Z,929.94
2019-02-03T00:55:19.595Z,929.93
2019-02-03T00:56:19.552Z,929.95
2019-02-03T00:57:19.500Z,929.96
2019-02-03T00:58:19.465Z,929.95
2019-02-03T00:59:19.422Z,929.95
2019-02-03T01:00:19.370Z,929.96
2019-02-03T01:01:19.348Z,929.96
2019-02-03T01:02:19.272Z,929.98
2019-02-03T01:03:19.229Z,929.96
2019-02-03T01:04:19.205Z,929.99
2019-02-03T01:05:19.164Z,929.96
2019-02-03T01:06:19.119Z,929.99
2019-02-03T01:07:27.081Z,930.02
2019-02-03T01:08:19.033Z,930.00
2019-02-03T01:09:18.988Z,930.02
2019-02-03T01:10:18.933Z,929.99
2019-02-03T01:11:18.914Z,930.01
2019-02-03T01:12:18.857Z,930.01
2019-02-03T01:13:18.794Z,930.04
2019-02-03T01:14:18.750Z,930.06
2019-02-03T01:15:18.766Z,930.07
2019-02-03T01:16:18.758Z,930.11
2019-02-03T01:17:18.633Z,930.17
2019-02-03T01:18:18.597Z,930.21
2019-02-03T01:19:18.558Z,930.24
2019-02-03T01:20:18.522Z,930.28
2019-02-03T01:21:18.468Z,930.29
2019-02-03T01:22:18.418Z,930.30
2019-02-03T01:23:18.391Z,930.35
2019-02-03T01:24:18.315Z,930.32
2019-02-03T01:25:18.286Z,930.38
2019-02-03T01:26:18.230Z,930.27
2019-02-03T01:27:18.185Z,930.31
2019-02-03T01:28:18.141Z,930.30
2019-02-03T01:29:18.100Z,930.33
2019-02-03T01:30:18.087Z,930.33
2019-02-03T01:31:18.021Z,930.33
2019-02-03T01:32:17.968Z,930.38
2019-02-03T01:33:17.934Z,930.35
2019-02-03T01:34:17.878Z,930.38
2019-02-03T01:35:17.857Z,930.42
2019-02-03T01:36:17.812Z,930.40
2019-02-03T01:37:17.748Z,930.45
2019-02-03T01:38:17.736Z,930.45
2019-02-03T01:39:17.672Z,930.51
2019-02-03T01:40:17.636Z,930.52
2019-02-03T01:41:17.592Z,930.58
2019-02-03T01:42:17.549Z,930.54
2019-02-03T01:43:17.505Z,930.58
2019-02-03T01:44:17.464Z,930.58
2019-02-03T01:45:17.418Z,930.53
2019-02-03T01:46:17.364Z,930.57
2019-02-03T01:47:17.321Z,930.62
2019-02-03T01:48:17.265Z,930.54
2019-02-03T01:49:17.233Z,930.54
2019-02-03T01:50:17.199Z,930.62
2019-02-03T01:51:17.166Z,930.63
2019-02-03T01:52:17.121Z,930.61
2019-02-03T01:53:17.080Z,930.64
2019-02-03T01:54:17.013Z,930.59
2019-02-03T01:55:16.989Z,930.58
2019-02-03T01:56:16.945Z,930.60
2019-02-03T01:57:16.890Z,930.65
2019-02-03T01:58:16.845Z,930.62
2019-02-03T01:59:16.782Z,930.66
2019-02-03T02:00:16.759Z,930.64
2019-02-03T02:01:16.725Z,930.67
2019-02-03T02:02:16.660Z,930.75
2019-02-03T02:03:16.624Z,930.74
2019-02-03T02:04:16.593Z,930.74
2019-02-03T02:05:16.517Z,930.70
2019-02-03T02:06:16.485Z,930.62
2019-02-03T02:07:16.460Z,930.60
2019-02-03T02:08:16.404Z,930.54
2019-02-03T02:09:16.353Z,930.52
2019-02-03T02:10:16.327Z,930.53
2019-02-03T02:11:16.263Z,930.52
2019-02-03T02:12:16.227Z,930.55
2019-02-03T02:13:16.174Z,930.57
2019-02-03T02:14:16.130Z,930.56
2019-02-03T02:15:16.086Z,930.55
2019-02-03T02:16:16.051Z,930.57
2019-02-03T02:17:16.011Z,930.56
2019-02-03T02:18:15.974Z,930.58
2019-02-03T02:19:15.897Z,930.61
2019-02-03T02:20:15.874Z,930.66
2019-02-03T02:21:15.843Z,930.64
2019-02-03T02:22:15.765Z,930.69
2019-02-03T02:23:15.722Z,930.74
2019-02-03T02:24:15.709Z,930.74
2019-02-03T02:25:15.653Z,930.77
2019-02-03T02:26:15.593Z,930.74
2019-02-03T02:27:15.565Z,930.76
2019-02-03T02:28:15.532Z,930.78
2019-02-03T02:29:15.479Z,930.89
2019-02-03T02:30:15.444Z,930.90
2019-02-03T02:31:15.400Z,930.92
2019-02-03T02:32:15.344Z,930.91
2019-02-03T02:33:15.301Z,930.92
2019-02-03T02:34:15.235Z,930.91
2019-02-03T02:35:15.223Z,930.94
2019-02-03T02:36:15.158Z,930.92
2019-02-03T02:37:15.134Z,930.88
2019-02-03T02:38:15.069Z,930.96
2019-02-03T02:39:15.046Z,930.99
2019-02-03T02:40:14.981Z,931.03
2019-02-03T02:41:14.945Z,930.99
2019-02-03T02:42:14.893Z,930.94
2019-02-03T02:43:14.869Z,930.97
2019-02-03T02:44:14.808Z,930.95
2019-02-03T02:45:14.769Z,930.95
2019-02-03T02:46:14.725Z,930.97
2019-02-03T02:47:14.674Z,930.92
2019-02-03T02:48:14.637Z,930.94
2019-02-03T02:49:14.583Z,930.93
2019-02-03T02:50:14.528Z,930.91
2019-02-03T02:51:14.497Z,930.90
2019-02-03T02:52:14.450Z,930.97
2019-02-03T02:53:14.415Z,930.92
2019-02-03T02:54:14.352Z,930.91
2019-02-03T02:55:14.308Z,930.93
2019-02-03T02:56:14.262Z,930.90
2019-02-03T02:57:14.238Z,930.88
2019-02-03T02:58:14.205Z,930.88
2019-02-03T02:59:14.142Z,930.90
2019-02-03T03:00:17.220Z,930.94
2019-02-03T03:01:14.061Z,930.82
2019-02-03T03:02:13.997Z,930.86
2019-02-03T03:03:13.965Z,930.82
2019-02-03T03:04:13.909Z,930.79
2019-02-03T03:05:13.898Z,930.82
2019-02-03T03:06:13.831Z,930.85
2019-02-03T03:07:13.774Z,930.84
2019-02-03T03:08:19.398Z,930.83
2019-02-03T03:09:13.724Z,930.83
2019-02-03T03:10:13.643Z,930.80
2019-02-03T03:11:13.617Z,930.77
2019-02-03T03:12:13.574Z,930.80
2019-02-03T03:13:13.510Z,930.81
2019-02-03T03:14:13.476Z,930.77
2019-02-03T03:15:13.468Z,930.76
2019-02-03T03:16:13.390Z,930.69
2019-02-03T03:17:13.353Z,930.65
2019-02-03T03:18:13.299Z,930.66
2019-02-03T03:19:13.244Z,930.58
2019-02-03T03:20:13.231Z,930.55
2019-02-03T03:21:13.191Z,930.54
2019-02-03T03:22:13.122Z,930.53
2019-02-03T03:23:13.077Z,930.53
2019-02-03T03:24:13.021Z,930.54
2019-02-03T03:25:13.010Z,930.54
2019-02-03T03:26:12.964Z,930.52
2019-02-03T03:27:12.908Z,930.52
2019-02-03T03:28:12.880Z,930.49
2019-02-03T03:29:12.799Z,930.51
2019-02-03T03:30:12.788Z,930.48
2019-02-03T03:31:12.923Z,930.43
2019-02-03T03:32:12.679Z,930.40
2019-02-03T03:33:12.649Z,930.42
2019-02-03T03:34:12.610Z,930.39
2019-02-03T03:35:12.570Z,930.37
2019-02-03T03:36:12.518Z,930.37
2019-02-03T03:37:12.457Z,930.38
2019-02-03T03:38:12.420Z,930.33
2019-02-03T03:39:12.388Z,930.37
2019-02-03T03:40:12.524Z,930.41
2019-02-03T03:41:12.287Z,930.45
2019-02-03T03:42:12.234Z,930.41
2019-02-03T03:43:12.207Z,930.43
2019-02-03T03:44:12.153Z,930.37
2019-02-03T03:45:12.105Z,930.36
2019-02-03T03:46:12.077Z,930.34
2019-02-03T03:47:12.021Z,930.29
2019-02-03T03:48:11.967Z,930.30
2019-02-03T03:49:11.931Z,930.32
2019-02-03T03:50:11.887Z,930.28
2019-02-03T03:51:11.853Z,930.28
2019-02-03T03:52:11.799Z,930.29
2019-02-03T03:53:11.757Z,930.28
2019-02-03T03:54:11.727Z,930.30
2019-02-03T03:55:11.676Z,930.25
2019-02-03T03:56:11.621Z,930.26
2019-02-03T03:57:11.575Z,930.20
2019-02-03T03:58:11.512Z,930.21
2019-02-03T03:59:11.477Z,930.13
2019-02-03T04:00:11.423Z,930.16
2019-02-03T04:01:11.436Z,930.14
2019-02-03T04:02:11.341Z,930.19
2019-02-03T04:03:11.309Z,930.19
2019-02-03T04:04:11.278Z,930.16
2019-02-03T04:05:11.230Z,930.14
2019-02-03T04:06:11.166Z,930.15
2019-02-03T04:07:11.120Z,930.17
2019-02-03T04:08:11.097Z,930.26
2019-02-03T04:09:11.020Z,930.31
2019-02-03T04:10:10.989Z,930.39
2019-02-03T04:11:10.952Z,930.41
2019-02-03T04:12:10.919Z,930.48
2019-02-03T04:13:10.857Z,930.48
2019-02-03T04:14:10.819Z,930.51
2019-02-03T04:15:10.773Z,930.53
2019-02-03T04:16:10.726Z,930.48
2019-02-03T04:17:10.665Z,930.50
2019-02-03T04:18:10.643Z,930.47
2019-02-03T04:19:10.607Z,930.47
2019-02-03T04:20:10.532Z,930.44
2019-02-03T04:21:10.501Z,930.45
2019-02-03T04:22:10.474Z,930.45
2019-02-03T04:23:10.427Z,930.42
2019-02-03T04:24:10.374Z,930.47
2019-02-03T04:25:10.325Z,930.33
2019-02-03T04:26:10.286Z,930.38
2019-02-03T04:27:10.261Z,930.36
2019-02-03T04:28:10.196Z,930.36
2019-02-03T04:29:12.314Z,930.30
2019-02-03T04:30:10.119Z,930.32
2019-02-03T04:31:10.079Z,930.30
2019-02-03T04:32:10.031Z,930.29
2019-02-03T04:33:09.964Z,930.19
2019-02-03T04:34:09.928Z,930.20
2019-02-03T04:35:09.885Z,930.17
2019-02-03T04:36:09.839Z,930.13
2019-02-03T04:37:09.773Z,930.16
2019-02-03T04:38:09.740Z,930.09
2019-02-03T04:39:09.685Z,930.12
2019-02-03T04:40:09.660Z,930.15
2019-02-03T04:41:09.627Z,930.13
2019-02-03T04:42:09.686Z,930.15
2019-02-03T04:43:09.526Z,930.15
2019-02-03T04:44:09.462Z,930.16
2019-02-03T04:45:09.449Z,930.17
2019-02-03T04:46:09.392Z,930.10
2019-02-03T04:47:09.453Z,930.11
2019-02-03T04:48:09.297Z,930.04
2019-02-03T04:49:09.270Z,929.99
2019-02-03T04:50:09.193Z,929.95
2019-02-03T04:51:09.162Z,929.96
2019-02-03T04:52:09.137Z,929.99
2019-02-03T04:53:09.092Z,929.97
2019-02-03T04:54:09.048Z,929.93
2019-02-03T04:55:08.983Z,929.93
2019-02-03T04:56:08.938Z,929.90
2019-02-03T04:57:08.903Z,929.87
2019-02-03T04:58:08.848Z,929.80
2019-02-03T04:59:08.813Z,929.83
2019-02-03T05:00:08.760Z,929.81
2019-02-03T05:01:08.724Z,929.77
2019-02-03T05:02:08.661Z,929.75
2019-02-03T05:03:08.627Z,929.81
2019-02-03T05:04:08.581Z,929.82
2019-02-03T05:05:08.536Z,929.77
2019-02-03T05:06:08.502Z,929.74
2019-02-03T05:07:08.457Z,929.70
2019-02-03T05:08:08.412Z,929.66
2019-02-03T05:09:11.097Z,929.61
2019-02-03T05:10:08.313Z,929.56
2019-02-03T05:11:08.268Z,929.59
2019-02-03T05:12:08.224Z,929.58
2019-02-03T05:13:08.193Z,929.60
2019-02-03T05:14:08.155Z,929.57
2019-02-03T05:15:08.292Z,929.56
2019-02-03T05:16:08.054Z,929.56
2019-02-03T05:17:08.009Z,929.49
2019-02-03T05:18:07.943Z,929.44
2019-02-03T05:19:07.936Z,929.38
2019-02-03T05:20:07.866Z,929.37
2019-02-03T05:21:07.810Z,929.33
2019-02-03T05:22:07.776Z,929.29
2019-02-03T05:23:07.741Z,929.30
2019-02-03T05:24:07.677Z,929.25
2019-02-03T05:25:07.651Z,929.30
2019-02-03T05:26:07.586Z,929.25
2019-02-03T05:27:07.553Z,929.21
2019-02-03T05:28:07.530Z,929.11
2019-02-03T05:29:07.463Z,929.13
2019-02-03T05:30:07.408Z,929.06
2019-02-03T05:31:07.385Z,928.99
2019-02-03T05:32:07.330Z,928.95
2019-02-03T05:33:07.275Z,928.95
2019-02-03T05:34:07.255Z,928.90
2019-02-03T05:35:07.200Z,928.92
2019-02-03T05:36:07.139Z,928.97
2019-02-03T05:37:07.106Z,928.93
2019-02-03T05:38:07.070Z,928.97
2019-02-03T05:39:07.028Z,929.00
2019-02-03T05:40:06.973Z,929.06
2019-02-03T05:41:06.928Z,929.04
2019-02-03T05:42:06.872Z,929.07
2019-02-03T05:43:06.858Z,929.09
2019-02-03T05:44:06.781Z,929.10
2019-02-03T05:45:06.737Z,929.08
2019-02-03T05:46:06.724Z,929.10
2019-02-03T05:47:06.650Z,929.10
2019-02-03T05:48:06.624Z,929.07
2019-02-03T05:49:06.570Z,929.09
2019-02-03T05:50:06.541Z,929.13
2019-02-03T05:51:06.501Z,929.11
2019-02-03T05:52:06.445Z,929.15
2019-02-03T05:53:06.411Z,929.09
2019-02-03T05:54:06.404Z,929.14
2019-02-03T05:55:06.301Z,929.14
2019-02-03T05:56:06.246Z,929.10
2019-02-03T05:57:06.235Z,929.09
2019-02-03T05:58:06.178Z,929.11
2019-02-03T05:59:06.131Z,929.14
2019-02-03T06:00:06.099Z,929.16
2019-02-03T06:01:06.053Z,929.19
2019-02-03T06:02:06.009Z,929.22
2019-02-03T06:03:05.964Z,929.21
2019-02-03T06:04:05.899Z,929.17
2019-02-03T06:05:05.844Z,929.25
2019-02-03T06:06:05.811Z,929.26
2019-02-03T06:07:05.753Z,929.31
2019-02-03T06:08:05.825Z,929.30
2019-02-03T06:09:05.696Z,929.27
2019-02-03T06:10:05.631Z,929.29
2019-02-03T06:11:05.596Z,929.27
2019-02-03T06:12:05.530Z,929.27
2019-02-03T06:13:05.517Z,929.29
2019-02-03T06:14:05.473Z,929.27
2019-02-03T06:15:05.408Z,929.28
2019-02-03T06:16:05.406Z,929.25
2019-02-03T06:17:05.345Z,929.27
2019-02-03T06:18:05.273Z,929.34
2019-02-03T06:19:05.237Z,929.35
2019-02-03T06:20:05.173Z,929.38
2019-02-03T06:21:05.148Z,929.43
2019-02-03T06:22:05.094Z,929.42
2019-02-03T06:23:05.049Z,929.41
2019-02-03T06:24:05.005Z,929.36
2019-02-03T06:25:04.982Z,929.34
2019-02-03T06:26:04.918Z,929.37
2019-02-03T06:27:04.891Z,929.36
2019-02-03T06:28:04.829Z,929.29
2019-02-03T06:29:04.790Z,929.32
2019-02-03T06:30:04.745Z,929.32
2019-02-03T06:31:04.700Z,929.31
2019-02-03T06:32:04.655Z,929.33
2019-02-03T06:33:04.610Z,929.40
2019-02-03T06:34:04.566Z,929.39
2019-02-03T06:35:04.500Z,929.33
2019-02-03T06:36:04.477Z,929.31
2019-02-03T06:37:04.419Z,929.31
2019-02-03T06:38:04.399Z,929.27
2019-02-03T06:39:04.334Z,929.24
2019-02-03T06:40:04.276Z,929.23
2019-02-03T06:41:04.252Z,929.22
2019-02-03T06:42:04.188Z,929.19
2019-02-03T06:43:04.143Z,929.19
2019-02-03T06:44:04.129Z,929.11
2019-02-03T06:45:04.052Z,929.09
2019-02-03T06:46:04.007Z,929.09
2019-02-03T06:47:03.994Z,929.10
2019-02-03T06:48:03.938Z,929.04
2019-02-03T06:49:03.874Z,929.01
2019-02-03T06:50:03.844Z,929.00
2019-02-03T06:51:03.815Z,928.98
2019-02-03T06:52:03.772Z,928.92
2019-02-03T06:53:03.694Z,928.88
2019-02-03T06:54:03.669Z,928.85
2019-02-03T06:55:03.624Z,928.86
2019-02-03T06:56:03.570Z,928.82
2019-02-03T06:57:03.525Z,928.84
2019-02-03T06:58:03.490Z,928.83
2019-02-03T06:59:03.458Z,928.84
2019-02-03T07:00:03.379Z,928.84
2019-02-03T07:01:03.367Z,928.81
2019-02-03T07:02:03.290Z,928.81
2019-02-03T07:03:03.265Z,928.82
2019-02-03T07:04:03.233Z,928.84
2019-02-03T07:05:03.190Z,928.83
2019-02-03T07:06:03.122Z,928.84
2019-02-03T07:07:03.086Z,928.86
2019-02-03T07:08:03.053Z,928.81
2019-02-03T07:09:02.990Z,928.77
2019-02-03T07:10:02.964Z,928.80
2019-02-03T07:11:02.899Z,928.80
2019-02-03T07:12:02.874Z,928.81
2019-02-03T07:13:02.802Z,928.85
2019-02-03T07:14:02.783Z,928.79
2019-02-03T07:15:02.739Z,928.81
2019-02-03T07:16:02.683Z,928.83
2019-02-03T07:17:02.616Z,928.87
2019-02-03T07:18:02.622Z,928.89
2019-02-03T07:19:02.582Z,928.96
2019-02-03T07:20:02.514Z,928.98
2019-02-03T07:21:02.457Z,928.96
2019-02-03T07:22:02.404Z,928.99
2019-02-03T07:23:02.358Z,929.00
2019-02-03T07:24:02.323Z,929.04
2019-02-03T07:25:02.258Z,929.06
2019-02-03T07:26:02.213Z,929.11
2019-02-03T07:27:02.188Z,929.12
2019-02-03T07:28:02.155Z,929.17
2019-02-03T07:29:02.089Z,929.20
2019-02-03T07:30:02.032Z,929.25
2019-02-03T07:31:02.003Z,929.23
2019-02-03T07:32:01.978Z,929.31
2019-02-03T07:33:01.914Z,929.30
2019-02-03T07:34:01.864Z,929.31
2019-02-03T07:35:01.808Z,929.32
2019-02-03T07:36:01.795Z,929.37
2019-02-03T07:37:01.717Z,929.34
2019-02-03T07:38:01.689Z,929.35
2019-02-03T07:39:01.660Z,929.35
2019-02-03T07:40:12.113Z,929.36
2019-02-03T07:41:01.560Z,929.36
2019-02-03T07:42:01.493Z,929.33
2019-02-03T07:43:01.480Z,929.27
2019-02-03T07:44:01.426Z,929.27
2019-02-03T07:45:01.371Z,929.30
2019-02-03T07:46:01.349Z,929.27
2019-02-03T07:47:01.270Z,929.28
2019-02-03T07:48:01.244Z,929.27
2019-02-03T07:49:01.198Z,929.27
2019-02-03T07:50:01.166Z,929.26
2019-02-03T07:51:01.092Z,929.28
2019-02-03T07:52:01.044Z,929.29
2019-02-03T07:53:00.999Z,929.32
2019-02-03T07:54:08.105Z,929.36
2019-02-03T07:55:00.909Z,929.40
2019-02-03T07:56:00.875Z,929.40
2019-02-03T07:57:00.834Z,929.40
2019-02-03T07:58:00.786Z,929.46
2019-02-03T07:59:00.741Z,929.45
2019-02-03T08:00:00.719Z,929.47
2019-02-03T08:01:00.661Z,929.44
2019-02-03T08:02:00.630Z,929.47
2019-02-03T08:03:00.549Z,929.46
2019-02-03T08:04:00.562Z,929.48
2019-02-03T08:05:00.471Z,929.44
2019-02-03T08:06:00.414Z,929.44
2019-02-03T08:07:00.403Z,929.48
2019-02-03T08:08:00.337Z,929.48
2019-02-03T08:09:00.292Z,929.45
2019-02-03T08:10:00.488Z,929.47
2019-02-03T08:11:00.190Z,929.47
2019-02-03T08:12:00.151Z,929.44
2019-02-03T08:13:00.103Z,929.42
2019-02-03T08:14:00.061Z,929.46
2019-02-03T08:15:00.031Z,929.45
2019-02-03T08:15:59.978Z,929.45
2019-02-03T08:16:59.953Z,929.44
2019-02-03T08:17:59.888Z,929.46
2019-02-03T08:18:59.853Z,929.49
2019-02-03T08:19:59.786Z,929.50
2019-02-03T08:20:59.762Z,929.53
2019-02-03T08:21:59.708Z,929.51
2019-02-03T08:22:59.663Z,929.54
2019-02-03T08:23:59.631Z,929.56
2019-02-03T08:24:59.574Z,929.53
2019-02-03T08:25:59.518Z,929.59
2019-02-03T08:26:59.505Z,929.61
2019-02-03T08:27:59.430Z,929.62
2019-02-03T08:28:59.419Z,929.64
2019-02-03T08:29:59.372Z,929.63
2019-02-03T08:30:59.305Z,929.65
2019-02-03T08:31:59.281Z,929.59
2019-02-03T08:32:59.236Z,929.57
2019-02-03T08:33:59.193Z,929.55
2019-02-03T08:34:59.147Z,929.60
2019-02-03T08:35:59.081Z,929.59
2019-02-03T08:36:59.045Z,929.61
2019-02-03T08:37:59.003Z,929.65
2019-02-03T08:38:58.938Z,929.63
2019-02-03T08:39:58.902Z,929.62
2019-02-03T08:40:58.878Z,929.63
2019-02-03T08:41:58.813Z,929.66
2019-02-03T08:42:58.757Z,929.65
2019-02-03T08:43:58.744Z,929.63
2019-02-03T08:44:58.687Z,929.60
2019-02-03T08:45:58.642Z,929.61
2019-02-03T08:46:58.598Z,929.62
2019-02-03T08:47:58.616Z,929.68
2019-02-03T08:48:58.487Z,929.67
2019-02-03T08:49:58.464Z,929.69
2019-02-03T08:50:58.399Z,929.65
2019-02-03T08:51:58.366Z,929.66
2019-02-03T08:52:58.347Z,929.70
2019-02-03T08:53:58.275Z,929.69
2019-02-03T08:54:58.744Z,929.69
2019-02-03T08:55:58.206Z,929.73
2019-02-03T08:56:58.150Z,929.78
2019-02-03T08:57:58.280Z,929.73
2019-02-03T08:58:58.061Z,929.72
2019-02-03T08:59:58.027Z,929.75
2019-02-03T09:00:57.951Z,929.76
2019-02-03T09:01:57.910Z,929.79
2019-02-03T09:02:57.884Z,929.79
2019-02-03T09:03:57.850Z,929.77
2019-02-03T09:04:57.782Z,929.79
2019-02-03T09:05:57.747Z,929.78
2019-02-03T09:06:57.967Z,929.83
2019-02-03T09:07:57.669Z,929.84
2019-02-03T09:08:57.603Z,929.87
2019-02-03T09:09:57.549Z,929.89
2019-02-03T09:10:57.503Z,929.91
2019-02-03T09:11:57.478Z,929.93
2019-02-03T09:12:57.412Z,929.94
2019-02-03T09:13:57.389Z,929.95
2019-02-03T09:14:57.344Z,929.94
2019-02-03T09:15:57.278Z,929.94
2019-02-03T09:16:57.265Z,930.02
2019-02-03T09:17:57.220Z,930.12
2019-02-03T09:18:57.176Z,930.14
2019-02-03T09:19:58.094Z,930.10
2019-02-03T09:20:57.074Z,930.06
2019-02-03T09:21:57.020Z,930.06
2019-02-03T09:22:56.984Z,930.03
2019-02-03T09:23:56.931Z,930.05
2019-02-03T09:24:56.906Z,930.02
2019-02-03T09:25:56.841Z,930.04
2019-02-03T09:26:56.796Z,930.11
2019-02-03T09:27:56.740Z,930.12
2019-02-03T09:28:56.696Z,930.15
2019-02-03T09:29:56.652Z,930.19
2019-02-03T09:30:56.606Z,930.22
2019-02-03T09:31:56.582Z,930.19
2019-02-03T09:32:56.549Z,930.32
2019-02-03T09:33:56.496Z,930.27
2019-02-03T09:34:56.428Z,930.25
2019-02-03T09:35:56.431Z,930.23
2019-02-03T09:36:56.341Z,930.22
2019-02-03T09:37:56.296Z,930.22
2019-02-03T09:38:56.283Z,930.25
2019-02-03T09:39:56.206Z,930.25
2019-02-03T09:41:00.207Z,930.29
2019-02-03T09:41:56.127Z,930.31
2019-02-03T09:42:56.092Z,930.30
2019-02-03T09:43:56.026Z,930.33
2019-02-03T09:44:56.017Z,930.32
2019-02-03T09:45:55.970Z,930.37
2019-02-03T09:46:55.904Z,930.68
2019-02-03T09:47:55.869Z,930.39
2019-02-03T09:48:55.835Z,930.34
2019-02-03T09:49:55.786Z,930.51
2019-02-03T09:50:55.726Z,930.93
2019-02-03T09:51:55.670Z,930.86
2019-02-03T09:52:55.628Z,930.92
2019-02-03T09:53:55.614Z,930.87
2019-02-03T09:54:55.559Z,930.89
2019-02-03T09:55:55.515Z,930.53
2019-02-03T09:56:55.454Z,931.03
2019-02-03T09:57:55.441Z,931.01
2019-02-03T09:58:55.398Z,931.07
2019-02-03T09:59:57.839Z,930.41
2019-02-03T10:00:55.295Z,930.49
2019-02-03T10:01:55.279Z,930.46
2019-02-03T10:02:55.212Z,930.52
2019-02-03T10:03:55.168Z,930.51
2019-02-03T10:04:55.124Z,930.48
2019-02-03T10:05:55.103Z,930.43
2019-02-03T10:06:55.040Z,930.50
2019-02-03T10:07:54.986Z,930.45
2019-02-03T10:08:54.965Z,930.48
2019-02-03T10:09:54.913Z,930.53
2019-02-03T10:10:54.891Z,930.55
2019-02-03T10:11:54.816Z,930.60
2019-02-03T10:12:54.794Z,930.62
2019-02-03T10:13:54.763Z,931.11
2019-02-03T10:14:54.709Z,930.71
2019-02-03T10:15:54.678Z,931.20
2019-02-03T10:16:54.635Z,930.69
2019-02-03T10:17:54.581Z,930.74
2019-02-03T10:18:54.550Z,930.71
2019-02-03T10:19:54.476Z,930.77
2019-02-03T10:20:54.434Z,930.96
2019-02-03T10:21:54.415Z,931.29
2019-02-03T10:22:54.349Z,931.32
2019-02-03T10:23:54.338Z,931.37
2019-02-03T10:24:54.296Z,931.36
2019-02-03T10:25:55.388Z,931.07
2019-02-03T10:26:54.213Z,931.29
2019-02-03T10:27:54.160Z,931.33
2019-02-03T10:28:54.100Z,931.38
2019-02-03T10:29:54.059Z,930.80
2019-02-03T10:30:54.058Z,930.81
2019-02-03T10:31:53.980Z,931.52
2019-02-03T10:32:53.951Z,931.85
2019-02-03T10:33:53.912Z,931.82
2019-02-03T10:34:53.896Z,930.86
2019-02-03T10:35:53.855Z,931.03
2019-02-03T10:36:53.805Z,930.75
2019-02-03T10:37:53.761Z,930.73
2019-02-03T10:38:53.727Z,930.70
2019-02-03T10:39:53.688Z,930.73
2019-02-03T10:40:53.640Z,930.59
2019-02-03T10:41:53.600Z,930.59
2019-02-03T10:42:53.550Z,930.61
2019-02-03T10:43:56.246Z,930.63
2019-02-03T10:44:53.490Z,930.68
2019-02-03T10:45:53.462Z,930.65
2019-02-03T10:46:53.389Z,930.68
2019-02-03T10:47:53.375Z,930.65
2019-02-03T10:48:53.307Z,930.68
2019-02-03T10:49:53.299Z,930.88
2019-02-03T10:50:53.227Z,930.74
2019-02-03T10:51:53.186Z,930.70
2019-02-03T10:52:53.154Z,930.72
2019-02-03T10:53:53.386Z,930.65
2019-02-03T10:54:53.080Z,930.80
2019-02-03T10:55:53.029Z,930.70
2019-02-03T10:56:52.997Z,930.63
2019-02-03T10:57:52.970Z,930.74
2019-02-03T10:58:52.913Z,930.75
2019-02-03T10:59:52.882Z,930.76
2019-02-03T11:00:55.067Z,930.77
2019-02-03T11:01:52.778Z,930.76
2019-02-03T11:02:52.745Z,930.75
2019-02-03T11:03:52.694Z,930.75
2019-02-03T11:04:52.640Z,930.74
2019-02-03T11:05:52.618Z,930.73
2019-02-03T11:06:52.555Z,930.68
2019-02-03T11:07:52.545Z,930.69
2019-02-03T11:08:52.482Z,930.74
2019-02-03T11:09:52.439Z,930.69
2019-02-03T11:10:52.399Z,930.64
2019-02-03T11:11:52.345Z,930.64
2019-02-03T11:12:52.312Z,930.64
2019-02-03T11:13:52.270Z,930.61
2019-02-03T11:14:52.237Z,930.61
2019-02-03T11:15:52.204Z,930.58
2019-02-03T11:16:52.141Z,930.56
2019-02-03T11:17:52.108Z,930.57
2019-02-03T11:18:52.044Z,930.57
2019-02-03T11:19:52.013Z,930.53
2019-02-03T11:20:51.980Z,930.54
2019-02-03T11:21:51.928Z,930.50
2019-02-03T11:22:51.885Z,930.52
2019-02-03T11:23:51.842Z,930.55
2019-02-03T11:24:51.808Z,930.57
2019-02-03T11:25:51.768Z,930.62
2019-02-03T11:26:51.703Z,930.60
2019-02-03T11:27:51.660Z,930.64
2019-02-03T11:28:51.637Z,930.64
2019-02-03T11:29:51.607Z,930.70
2019-02-03T11:30:51.545Z,930.69
2019-02-03T11:31:54.245Z,930.65
2019-02-03T11:32:51.459Z,930.67
2019-02-03T11:33:51.435Z,930.68
2019-02-03T11:34:51.361Z,930.71
2019-02-03T11:35:51.339Z,930.70
2019-02-03T11:36:51.311Z,930.73
2019-02-03T11:37:51.265Z,930.68
2019-02-03T11:38:51.191Z,930.71
2019-02-03T11:39:51.152Z,930.73
2019-02-03T11:40:51.139Z,930.81
2019-02-03T11:41:51.076Z,930.80
2019-02-03T11:42:51.033Z,930.83
2019-02-03T11:43:50.997Z,930.89
2019-02-03T11:44:50.949Z,930.89
2019-02-03T11:45:50.928Z,930.85
2019-02-03T11:46:50.888Z,930.92
2019-02-03T11:47:50.833Z,930.85
2019-02-03T11:48:50.872Z,930.85
2019-02-03T11:49:50.740Z,930.83
2019-02-03T11:50:50.706Z,930.85
2019-02-03T11:51:50.644Z,930.81
2019-02-03T11:52:50.616Z,930.78
2019-02-03T11:53:50.602Z,930.77
2019-02-03T11:54:50.531Z,930.77
2019-02-03T11:55:53.561Z,930.82
2019-02-03T11:56:50.467Z,930.83
2019-02-03T11:57:50.427Z,930.89
2019-02-03T11:58:50.364Z,930.84
2019-02-03T11:59:50.309Z,930.87
2019-02-03T12:00:50.279Z,930.90
2019-02-03T12:01:50.237Z,930.83
2019-02-03T12:02:50.204Z,930.91
2019-02-03T12:03:50.142Z,930.97
2019-02-03T12:04:50.120Z,930.99
2019-02-03T12:05:50.164Z,930.94
2019-02-03T12:06:50.037Z,930.99
2019-02-03T12:07:49.995Z,930.92
2019-02-03T12:08:49.963Z,930.96
2019-02-03T12:09:49.910Z,930.97
2019-02-03T12:10:49.847Z,930.98
2019-02-03T12:12:00.585Z,931.02
2019-02-03T12:12:49.764Z,931.02
2019-02-03T12:13:49.722Z,930.96
2019-02-03T12:14:49.700Z,930.96
2019-02-03T12:15:49.654Z,930.92
2019-02-03T12:16:49.616Z,930.91
2019-02-03T12:17:49.523Z,930.94
2019-02-03T12:18:49.543Z,930.95
2019-02-03T12:19:49.476Z,930.95
2019-02-03T12:20:49.460Z,930.96
2019-02-03T12:21:49.397Z,930.99
2019-02-03T12:22:49.355Z,931.01
2019-02-03T12:23:49.322Z,930.98
2019-02-03T12:24:49.272Z,930.98
2019-02-03T12:25:49.230Z,930.98
2019-02-03T12:26:49.209Z,930.98
2019-02-03T12:27:49.169Z,930.96